Wetterdaten: Woche 24.09.18 - 30.09.18 (KW39)
Datum Zeit Temp. A. Feuchte A. Luftdruck Regen Wind Richtung Taupunkt Windchill Windben
24.09.2018 00:00 16,6 C 80 % 1008,7 hPa 1,0 l/m 10,0 km/h N 13,1 C 14,9 C 30,2 km/h
24.09.2018 01:00 15,9 C 79 % 1008,3 hPa 1,3 l/m 8,7 km/h N 12,3 C 14,5 C 31,0 km/h
24.09.2018 02:00 16,2 C 73 % 1008,3 hPa 0,3 l/m 16,4 km/h N 11,4 C 12,3 C 46,3 km/h
24.09.2018 03:00 13,5 C 77 % 1012,5 hPa 1,0 l/m 18,1 km/h N 9,6 C 8,6 C 45,8 km/h
24.09.2018 04:00 11,6 C 77 % 1014,6 hPa 0,0 l/m 9,4 km/h N 7,6 C 9,7 C 33,0 km/h
24.09.2018 05:00 11,3 C 73 % 1016,3 hPa 0,3 l/m 11,0 km/h N 6,6 C 8,6 C 35,4 km/h
24.09.2018 06:00 10,6 C 69 % 1018,5 hPa 0,0 l/m 8,1 km/h N 5,1 C 9,5 C 30,6 km/h
24.09.2018 07:00 10,6 C 71 % 1020,2 hPa 0,0 l/m 6,6 km/h N 5,4 C 10,4 C 24,1 km/h
24.09.2018 08:00 10,8 C 68 % 1021,3 hPa 0,0 l/m 8,6 km/h N 5,0 C 9,3 C 31,8 km/h
24.09.2018 09:00 11,1 C 65 % 1022,7 hPa 0,0 l/m 9,3 km/h N 4,8 C 9,2 C 27,0 km/h
24.09.2018 10:00 11,4 C 65 % 1023,8 hPa 0,0 l/m 8,7 km/h N 4,9 C 9,5 C 27,8 km/h
24.09.2018 11:00 11,7 C 64 % 1025,0 hPa 0,0 l/m 8,3 km/h N 5,0 C 10,5 C 26,6 km/h
24.09.2018 12:00 12,4 C 60 % 1025,3 hPa 0,0 l/m 8,3 km/h N 4,9 C 11,2 C 28,2 km/h
24.09.2018 13:00 13,0 C 57 % 1025,5 hPa 0,0 l/m 9,4 km/h N 4,6 C 11,3 C 28,6 km/h
24.09.2018 14:00 13,3 C 60 % 1025,4 hPa 0,0 l/m 5,8 km/h N 5,6 C 13,2 C 22,1 km/h
24.09.2018 15:00 13,4 C 59 % 1025,4 hPa 0,0 l/m 6,0 km/h N 5,5 C 13,3 C 23,3 km/h
24.09.2018 16:00 13,0 C 59 % 1025,6 hPa 0,0 l/m 6,1 km/h N 5,3 C 12,8 C 24,9 km/h
24.09.2018 17:00 12,5 C 61 % 1025,9 hPa 0,0 l/m 6,3 km/h N 5,2 C 12,1 C 23,7 km/h
24.09.2018 18:00 12,3 C 61 % 1026,4 hPa 0,0 l/m 8,6 km/h N 5,0 C 11,1 C 25,4 km/h
24.09.2018 19:00 11,1 C 65 % 1027,3 hPa 0,0 l/m 8,4 km/h N 4,8 C 9,7 C 27,8 km/h
24.09.2018 20:00 11,1 C 59 % 1027,8 hPa 0,0 l/m 6,4 km/h N 3,2 C 10,7 C 23,3 km/h
24.09.2018 21:00 11,2 C 58 % 1028,4 hPa 0,0 l/m 6,9 km/h N 3,2 C 10,7 C 22,5 km/h
24.09.2018 22:00 11,0 C 60 % 1028,8 hPa 0,0 l/m 7,3 km/h N 3,6 C 10,2 C 24,5 km/h
24.09.2018 23:00 10,9 C 60 % 1029,2 hPa 0,0 l/m 8,4 km/h N 3,4 C 9,6 C 24,9 km/h
25.09.2018 00:00 10,4 C 62 % 1029,6 hPa 0,0 l/m 6,0 km/h N 3,4 C 9,9 C 20,9 km/h
25.09.2018 01:00 9,7 C 66 % 1029,9 hPa 0,0 l/m 1,5 km/h N 3,7 C 9,7 C 13,3 km/h
25.09.2018 02:00 9,7 C 68 % 1030,4 hPa 0,0 l/m 3,4 km/h N 4,1 C 9,7 C 16,9 km/h
25.09.2018 03:00 9,3 C 68 % 1031,0 hPa 0,0 l/m 6,0 km/h N 3,6 C 9,1 C 25,0 km/h
25.09.2018 04:00 9,0 C 67 % 1031,7 hPa 0,0 l/m 5,8 km/h N 3,2 C 8,7 C 23,7 km/h
25.09.2018 05:00 8,4 C 68 % 1032,3 hPa 0,0 l/m 6,3 km/h N 2,8 C 8,4 C 23,3 km/h
25.09.2018 06:00 7,9 C 68 % 1032,8 hPa 0,0 l/m 4,3 km/h N 2,5 C 7,9 C 19,7 km/h
25.09.2018 07:00 7,6 C 70 % 1033,5 hPa 0,0 l/m 5,1 km/h N 2,5 C 7,6 C 20,1 km/h
25.09.2018 08:00 8,2 C 70 % 1034,0 hPa 0,0 l/m 8,0 km/h N 3,0 C 6,9 C 26,5 km/h
25.09.2018 09:00 8,9 C 66 % 1034,9 hPa 0,0 l/m 7,1 km/h N 3,0 C 8,0 C 25,4 km/h
25.09.2018 10:00 10,1 C 63 % 1035,7 hPa 0,0 l/m 7,5 km/h N 3,4 C 9,4 C 25,7 km/h
25.09.2018 11:00 11,2 C 59 % 1036,3 hPa 0,0 l/m 6,7 km/h N 3,5 C 10,8 C 24,5 km/h
25.09.2018 12:00 11,6 C 55 % 1036,4 hPa 0,0 l/m 6,9 km/h N 3,0 C 11,3 C 24,9 km/h
25.09.2018 13:00 11,9 C 53 % 1036,3 hPa 0,0 l/m 7,6 km/h N 2,5 C 11,1 C 24,5 km/h
25.09.2018 14:00 11,7 C 52 % 1036,2 hPa 0,0 l/m 5,3 km/h N 2,2 C 11,7 C 20,9 km/h
25.09.2018 15:00 11,8 C 52 % 1036,1 hPa 0,0 l/m 5,5 km/h N 2,4 C 11,8 C 22,1 km/h
25.09.2018 16:00 12,0 C 50 % 1036,1 hPa 0,0 l/m 3,8 km/h N 1,7 C 12,0 C 19,3 km/h
25.09.2018 17:00 11,5 C 51 % 1036,2 hPa 0,0 l/m 2,2 km/h N 1,7 C 11,5 C 12,1 km/h
25.09.2018 18:00 11,1 C 52 % 1036,7 hPa 0,0 l/m 1,3 km/h N 1,6 C 11,1 C 9,6 km/h
25.09.2018 19:00 9,5 C 59 % 1037,3 hPa 0,0 l/m 0,0 km/h N 1,9 C 9,5 C 1,6 km/h
25.09.2018 20:00 8,3 C 64 % 1038,2 hPa 0,0 l/m 0,0 km/h N 1,8 C 8,3 C 0,4 km/h
25.09.2018 21:00 7,4 C 68 % 1038,9 hPa 0,0 l/m 0,0 km/h N 2,0 C 7,4 C 0,0 km/h
25.09.2018 22:00 5,9 C 73 % 1039,3 hPa 0,0 l/m 0,0 km/h N 1,5 C 5,9 C 0,0 km/h
25.09.2018 23:00 4,7 C 77 % 1039,6 hPa 0,0 l/m 0,0 km/h N 1,0 C 4,7 C 0,0 km/h
26.09.2018 00:00 4,1 C 79 % 1039,8 hPa 0,0 l/m 0,0 km/h N 0,7 C 4,1 C 0,0 km/h
26.09.2018 01:00 3,8 C 80 % 1039,7 hPa 0,0 l/m 0,0 km/h N 0,6 C 3,8 C 0,0 km/h
26.09.2018 02:00 4,1 C 80 % 1039,8 hPa 0,0 l/m 0,1 km/h N 0,9 C 4,1 C 2,8 km/h
26.09.2018 03:00 4,2 C 78 % 1039,6 hPa 0,0 l/m 0,0 km/h N 0,7 C 4,2 C 0,8 km/h
26.09.2018 04:00 3,4 C 79 % 1039,6 hPa 0,0 l/m 0,0 km/h N 0,0 C 3,4 C 0,0 km/h
26.09.2018 05:00 2,7 C 80 % 1039,4 hPa 0,0 l/m 0,1 km/h N -0,4 C 2,7 C 1,6 km/h
26.09.2018 06:00 2,3 C 81 % 1039,5 hPa 0,0 l/m 0,1 km/h N -0,6 C 2,3 C 2,4 km/h
26.09.2018 07:00 2,1 C 82 % 1039,8 hPa 0,0 l/m 0,0 km/h N -0,7 C 2,1 C 1,2 km/h
26.09.2018 08:00 3,3 C 82 % 1039,4 hPa 0,0 l/m 0,0 km/h N 0,5 C 3,3 C 0,0 km/h
26.09.2018 09:00 5,8 C 81 % 1039,4 hPa 0,0 l/m 0,1 km/h N 2,8 C 5,8 C 2,8 km/h
26.09.2018 10:00 10,9 C 69 % 1039,4 hPa 0,0 l/m 0,3 km/h N 5,2 C 10,9 C 4,0 km/h
26.09.2018 11:00 14,5 C 50 % 1038,4 hPa 0,0 l/m 2,8 km/h N 4,0 C 14,5 C 12,1 km/h
26.09.2018 12:00 15,9 C 47 % 1037,8 hPa 0,0 l/m 2,7 km/h N 4,6 C 15,9 C 11,7 km/h
26.09.2018 13:00 16,4 C 44 % 1036,7 hPa 0,0 l/m 2,6 km/h N 4,2 C 16,4 C 9,7 km/h
26.09.2018 14:00 16,4 C 45 % 1035,7 hPa 0,0 l/m 2,1 km/h N 4,5 C 16,4 C 8,4 km/h
26.09.2018 15:00 16,4 C 44 % 1034,9 hPa 0,0 l/m 1,8 km/h N 3,9 C 16,4 C 8,0 km/h
26.09.2018 16:00 15,8 C 44 % 1034,0 hPa 0,0 l/m 0,9 km/h N 3,6 C 15,8 C 6,4 km/h
26.09.2018 17:00 15,6 C 45 % 1033,4 hPa 0,0 l/m 0,5 km/h N 3,6 C 15,6 C 5,2 km/h
26.09.2018 18:00 14,6 C 48 % 1033,2 hPa 0,0 l/m 0,0 km/h N 3,8 C 14,6 C 1,6 km/h
26.09.2018 19:00 12,3 C 56 % 1033,2 hPa 0,0 l/m 0,0 km/h N 3,8 C 12,3 C 0,0 km/h
26.09.2018 20:00 9,4 C 66 % 1033,2 hPa 0,0 l/m 0,0 km/h N 3,4 C 9,4 C 0,0 km/h
26.09.2018 21:00 7,6 C 74 % 1033,2 hPa 0,0 l/m 0,0 km/h N 3,3 C 7,6 C 0,0 km/h
26.09.2018 22:00 6,6 C 78 % 1032,9 hPa 0,0 l/m 0,0 km/h N 3,0 C 6,6 C 0,0 km/h
26.09.2018 23:00 6,2 C 80 % 1032,9 hPa 0,0 l/m 0,0 km/h N 3,0 C 6,2 C 0,0 km/h
27.09.2018 00:00 5,8 C 81 % 1032,5 hPa 0,0 l/m 0,0 km/h N 2,8 C 5,8 C 0,0 km/h
27.09.2018 01:00 5,2 C 81 % 1032,3 hPa 0,0 l/m 0,0 km/h N 2,2 C 5,2 C 0,4 km/h
27.09.2018 02:00 4,5 C 81 % 1032,3 hPa 0,0 l/m 0,0 km/h N 1,6 C 4,5 C 0,0 km/h
27.09.2018 03:00 3,9 C 82 % 1032,2 hPa 0,0 l/m 0,0 km/h N 1,1 C 3,9 C 0,0 km/h
27.09.2018 04:00 3,5 C 81 % 1031,8 hPa 0,0 l/m 0,0 km/h N 0,5 C 3,5 C 0,0 km/h
27.09.2018 05:00 3,3 C 81 % 1031,6 hPa 0,0 l/m 0,0 km/h N 0,3 C 3,3 C 0,0 km/h
27.09.2018 06:00 3,1 C 81 % 1031,4 hPa 0,0 l/m 0,0 km/h N 0,2 C 3,1 C 0,0 km/h
27.09.2018 07:00 3,2 C 81 % 1031,6 hPa 0,0 l/m 0,0 km/h N 0,2 C 3,2 C 0,0 km/h
27.09.2018 08:00 5,3 C 82 % 1031,7 hPa 0,0 l/m 0,0 km/h N 2,3 C 5,3 C 0,8 km/h
27.09.2018 09:00 8,1 C 82 % 1031,9 hPa 0,0 l/m 0,0 km/h N 5,3 C 8,1 C 2,0 km/h
27.09.2018 10:00 12,2 C 81 % 1031,7 hPa 0,0 l/m 0,0 km/h N 9,0 C 12,2 C 2,0 km/h
27.09.2018 11:00 17,0 C 61 % 1031,1 hPa 0,0 l/m 1,5 km/h N 9,1 C 17,0 C 8,5 km/h
27.09.2018 12:00 19,5 C 43 % 1030,4 hPa 0,0 l/m 5,1 km/h N 6,6 C 19,5 C 14,1 km/h
27.09.2018 13:00 20,5 C 40 % 1029,8 hPa 0,0 l/m 3,7 km/h N 6,4 C 20,5 C 10,1 km/h
27.09.2018 14:00 20,9 C 38 % 1028,9 hPa 0,0 l/m 3,2 km/h N 6,0 C 20,9 C 11,7 km/h
27.09.2018 15:00 21,4 C 36 % 1028,0 hPa 0,0 l/m 1,9 km/h N 5,6 C 21,4 C 8,1 km/h
27.09.2018 16:00 21,4 C 39 % 1027,3 hPa 0,0 l/m 0,2 km/h N 6,7 C 21,4 C 4,8 km/h
27.09.2018 17:00 21,1 C 41 % 1026,8 hPa 0,0 l/m 0,1 km/h N 7,2 C 21,1 C 2,8 km/h
27.09.2018 18:00 20,1 C 47 % 1026,3 hPa 0,0 l/m 0,1 km/h N 8,3 C 20,1 C 1,6 km/h
27.09.2018 19:00 17,1 C 58 % 1026,1 hPa 0,0 l/m 0,0 km/h N 8,6 C 17,1 C 0,0 km/h
27.09.2018 20:00 13,8 C 70 % 1025,9 hPa 0,0 l/m 0,0 km/h N 8,4 C 13,8 C 0,0 km/h
27.09.2018 21:00 12,2 C 75 % 1025,3 hPa 0,0 l/m 0,0 km/h N 7,9 C 12,2 C 0,0 km/h
27.09.2018 22:00 10,9 C 78 % 1024,6 hPa 0,0 l/m 0,0 km/h N 7,1 C 10,9 C 0,0 km/h
27.09.2018 23:00 9,9 C 79 % 1023,8 hPa 0,0 l/m 0,0 km/h N 6,4 C 9,9 C 0,0 km/h
28.09.2018 00:00 9,1 C 80 % 1023,2 hPa 0,0 l/m 0,0 km/h N 5,8 C 9,1 C 0,0 km/h
28.09.2018 01:00 8,4 C 80 % 1022,7 hPa 0,0 l/m 0,0 km/h N 5,2 C 8,4 C 0,0 km/h
28.09.2018 02:00 7,9 C 81 % 1021,8 hPa 0,0 l/m 0,0 km/h N 4,8 C 7,9 C 0,0 km/h
28.09.2018 03:00 7,4 C 81 % 1021,0 hPa 0,0 l/m 0,0 km/h N 4,3 C 7,4 C 0,0 km/h
28.09.2018 04:00 6,8 C 81 % 1020,5 hPa 0,0 l/m 0,0 km/h N 3,8 C 6,8 C 0,8 km/h
28.09.2018 05:00 6,8 C 80 % 1020,1 hPa 0,0 l/m 0,1 km/h N 3,6 C 6,8 C 1,2 km/h
28.09.2018 06:00 7,1 C 81 % 1020,1 hPa 0,0 l/m 0,0 km/h N 4,0 C 7,1 C 0,0 km/h
28.09.2018 07:00 6,7 C 81 % 1020,4 hPa 0,0 l/m 0,0 km/h N 3,7 C 6,7 C 0,0 km/h
28.09.2018 08:00 7,9 C 81 % 1020,5 hPa 0,0 l/m 0,0 km/h N 4,9 C 7,9 C 0,0 km/h
28.09.2018 09:00 10,0 C 82 % 1020,6 hPa 0,0 l/m 0,0 km/h N 7,1 C 10,0 C 0,4 km/h
28.09.2018 10:00 13,6 C 81 % 1020,5 hPa 0,0 l/m 0,0 km/h N 10,3 C 13,6 C 1,6 km/h
28.09.2018 11:00 18,4 C 65 % 1020,0 hPa 0,0 l/m 0,2 km/h N 11,6 C 18,4 C 4,8 km/h
28.09.2018 12:00 21,4 C 56 % 1019,1 hPa 0,0 l/m 0,1 km/h N 12,2 C 21,4 C 1,6 km/h
28.09.2018 13:00 22,9 C 51 % 1018,3 hPa 0,0 l/m 0,4 km/h N 12,1 C 22,9 C 6,8 km/h
28.09.2018 14:00 22,9 C 43 % 1017,4 hPa 0,0 l/m 4,1 km/h N 9,6 C 22,9 C 15,3 km/h
28.09.2018 15:00 23,0 C 45 % 1016,7 hPa 0,0 l/m 4,8 km/h N 10,5 C 23,0 C 14,1 km/h
28.09.2018 16:00 23,0 C 45 % 1016,1 hPa 0,0 l/m 7,6 km/h N 10,4 C 22,7 C 22,1 km/h
28.09.2018 17:00 22,5 C 48 % 1015,8 hPa 0,0 l/m 5,5 km/h N 10,9 C 22,5 C 16,9 km/h
28.09.2018 18:00 21,3 C 52 % 1016,2 hPa 0,0 l/m 3,7 km/h N 11,0 C 21,3 C 13,7 km/h
28.09.2018 19:00 20,3 C 56 % 1016,6 hPa 0,0 l/m 4,6 km/h N 11,2 C 20,3 C 12,5 km/h
28.09.2018 20:00 19,6 C 58 % 1017,7 hPa 0,0 l/m 4,1 km/h N 11,0 C 19,6 C 14,9 km/h
28.09.2018 21:00 18,5 C 54 % 1018,5 hPa 0,0 l/m 2,4 km/h N 9,1 C 18,5 C 10,1 km/h
28.09.2018 22:00 17,7 C 56 % 1019,3 hPa 0,0 l/m 4,2 km/h N 8,6 C 17,7 C 16,5 km/h
28.09.2018 23:00 16,7 C 63 % 1020,0 hPa 0,0 l/m 6,2 km/h N 9,5 C 16,5 C 18,5 km/h
29.09.2018 00:00 15,4 C 69 % 1020,7 hPa 0,0 l/m 7,4 km/h N 9,6 C 14,8 C 23,7 km/h
29.09.2018 01:00 14,3 C 68 % 1021,2 hPa 0,0 l/m 6,9 km/h N 8,5 C 13,9 C 23,3 km/h
29.09.2018 02:00 13,6 C 68 % 1021,9 hPa 0,0 l/m 6,1 km/h N 7,8 C 13,6 C 22,1 km/h
29.09.2018 03:00 13,0 C 65 % 1022,6 hPa 0,0 l/m 6,8 km/h N 6,5 C 12,6 C 22,1 km/h
29.09.2018 04:00 12,4 C 64 % 1023,3 hPa 0,0 l/m 3,7 km/h N 5,7 C 12,4 C 16,9 km/h
29.09.2018 05:00 12,0 C 67 % 1023,6 hPa 0,0 l/m 1,5 km/h N 6,1 C 12,0 C 10,4 km/h
29.09.2018 06:00 11,7 C 70 % 1024,1 hPa 0,0 l/m 2,7 km/h N 6,4 C 11,7 C 13,7 km/h
29.09.2018 07:00 11,2 C 66 % 1025,1 hPa 0,0 l/m 4,7 km/h N 5,1 C 11,2 C 18,5 km/h
29.09.2018 08:00 10,7 C 67 % 1025,6 hPa 0,0 l/m 3,9 km/h N 4,9 C 10,7 C 17,3 km/h
29.09.2018 09:00 11,0 C 65 % 1026,2 hPa 0,0 l/m 5,4 km/h N 4,6 C 11,0 C 20,1 km/h
29.09.2018 10:00 12,5 C 57 % 1026,5 hPa 0,0 l/m 6,3 km/h N 4,1 C 12,4 C 21,7 km/h
29.09.2018 11:00 13,3 C 51 % 1026,8 hPa 0,0 l/m 7,1 km/h N 3,3 C 12,8 C 22,1 km/h
29.09.2018 12:00 13,8 C 49 % 1026,8 hPa 0,0 l/m 6,6 km/h N 3,3 C 13,5 C 21,3 km/h
29.09.2018 13:00 14,2 C 48 % 1026,2 hPa 0,0 l/m 5,4 km/h N 3,4 C 14,2 C 19,3 km/h
29.09.2018 14:00 14,3 C 44 % 1025,7 hPa 0,0 l/m 7,2 km/h N 2,2 C 13,7 C 21,7 km/h
29.09.2018 15:00 14,3 C 43 % 1025,5 hPa 0,0 l/m 6,8 km/h N 1,7 C 14,0 C 19,7 km/h
29.09.2018 16:00 14,2 C 44 % 1025,3 hPa 0,0 l/m 5,5 km/h N 2,2 C 14,1 C 18,5 km/h
29.09.2018 17:00 13,8 C 45 % 1025,3 hPa 0,0 l/m 3,0 km/h N 2,1 C 13,8 C 12,9 km/h
29.09.2018 18:00 13,0 C 47 % 1025,3 hPa 0,0 l/m 1,3 km/h N 1,9 C 13,0 C 8,1 km/h
29.09.2018 19:00 11,1 C 55 % 1025,8 hPa 0,0 l/m 0,0 km/h N 2,3 C 11,1 C 1,6 km/h
29.09.2018 20:00 9,0 C 62 % 1026,1 hPa 0,0 l/m 0,0 km/h N 2,1 C 9,0 C 0,0 km/h
29.09.2018 21:00 6,9 C 71 % 1026,3 hPa 0,0 l/m 0,0 km/h N 2,0 C 6,9 C 0,0 km/h
29.09.2018 22:00 6,1 C 75 % 1026,3 hPa 0,0 l/m 0,0 km/h N 2,0 C 6,1 C 0,0 km/h
29.09.2018 23:00 5,8 C 77 % 1026,1 hPa 0,0 l/m 0,0 km/h N 2,0 C 5,8 C 0,4 km/h
30.09.2018 00:00 5,4 C 77 % 1025,9 hPa 0,0 l/m 0,0 km/h N 1,7 C 5,4 C 2,0 km/h
30.09.2018 01:00 5,1 C 78 % 1025,4 hPa 0,0 l/m 0,0 km/h N 1,5 C 5,1 C 0,8 km/h
30.09.2018 02:00 4,3 C 79 % 1025,1 hPa 0,0 l/m 0,0 km/h N 0,9 C 4,3 C 0,0 km/h
30.09.2018 03:00 3,7 C 80 % 1024,6 hPa 0,0 l/m 0,0 km/h N 0,5 C 3,7 C 0,0 km/h
30.09.2018 04:00 2,9 C 80 % 1024,2 hPa 0,0 l/m 0,0 km/h N -0,1 C 2,9 C 0,0 km/h
30.09.2018 05:00 2,4 C 81 % 1023,9 hPa 0,0 l/m 0,0 km/h N -0,5 C 2,4 C 0,0 km/h
30.09.2018 06:00 1,5 C 81 % 1023,6 hPa 0,0 l/m 0,0 km/h N -1,3 C 1,5 C 0,0 km/h
30.09.2018 07:00 1,0 C 82 % 1023,4 hPa 0,0 l/m 0,0 km/h N -1,8 C 1,0 C 0,0 km/h
30.09.2018 08:00 2,2 C 81 % 1023,2 hPa 0,0 l/m 0,0 km/h N -0,8 C 2,2 C 0,8 km/h
30.09.2018 09:00 5,3 C 81 % 1022,9 hPa 0,0 l/m 0,3 km/h N 2,4 C 5,3 C 2,8 km/h
30.09.2018 10:00 10,8 C 72 % 1022,1 hPa 0,0 l/m 1,9 km/h N 5,7 C 10,8 C 9,7 km/h
30.09.2018 11:00 14,6 C 55 % 1021,3 hPa 0,0 l/m 2,5 km/h N 5,7 C 14,6 C 10,9 km/h
30.09.2018 12:00 16,4 C 48 % 1020,4 hPa 0,0 l/m 3,8 km/h N 5,4 C 16,4 C 9,7 km/h
30.09.2018 13:00 17,2 C 45 % 1019,6 hPa 0,0 l/m 4,0 km/h N 5,2 C 17,2 C 11,7 km/h
30.09.2018 14:00 17,3 C 46 % 1018,7 hPa 0,0 l/m 3,2 km/h N 5,4 C 17,3 C 11,7 km/h
30.09.2018 15:00 17,5 C 44 % 1017,9 hPa 0,0 l/m 3,7 km/h N 4,9 C 17,5 C 13,7 km/h
30.09.2018 16:00 17,0 C 44 % 1017,3 hPa 0,0 l/m 2,3 km/h N 4,6 C 17,0 C 11,7 km/h
30.09.2018 17:00 16,5 C 45 % 1016,7 hPa 0,0 l/m 1,8 km/h N 4,5 C 16,5 C 9,3 km/h
30.09.2018 18:00 15,3 C 49 % 1016,4 hPa 0,0 l/m 0,2 km/h N 4,7 C 15,3 C 4,0 km/h
30.09.2018 19:00 13,6 C 55 % 1016,4 hPa 0,0 l/m 0,2 km/h N 4,6 C 13,6 C 3,2 km/h
30.09.2018 20:00 12,2 C 59 % 1016,1 hPa 0,0 l/m 0,1 km/h N 4,5 C 12,2 C 2,8 km/h
30.09.2018 21:00 11,1 C 62 % 1015,5 hPa 0,0 l/m 0,0 km/h N 4,0 C 11,1 C 0,4 km/h
30.09.2018 22:00 9,1 C 69 % 1014,6 hPa 0,0 l/m 0,0 km/h N 3,6 C 9,1 C 0,4 km/h
30.09.2018 23:00 7,3 C 75 % 1014,0 hPa 0,0 l/m 0,0 km/h N 3,1 C 7,3 C 0,0 km/h
Min-Datum _ 30.09.18 27.09.18 24.09.18 - 25.09.18 - 30.09.18 30.09.18 25.09.18
_ Min-Zeit 07:45 15:15 02:15 - 18:45 - 07:15 07:15 19:15
Minimum _ 0,8 C 35 % 1007,3 hPa - 0,0 km/h - -1,8 C 0,9 C 0,0 km/h
Max-Datum _ 28.09.18 26.09.18 26.09.18 24.09.18 24.09.18 - 24.09.18 28.09.18 24.09.18
_ Max-Zeit 14:00 07:30 07:00 01:30 03:00 - 00:30 15:30 03:00
Maximum _ 23,1 C 82 % 1039,9 hPa 1,3 l/m 25,1 km/h
N
- 13,3 C 23,1 C 59,5 km/h
N
Durchschnitt _ 11,3 C 65 % 1026,8 hPa #3,9 l/m 3,0 km/h N 4,5 C 11,1 C 11,1 km/h